Time;durP1;ratioP1;P1;durP2;ratioP2;P2;SDS_P1;SDS_P2;PMS_P1;PMS_P2;Temp;Humidity;BMP_temperature;BMP_pressure;BME280_temperature;BME280_humidity;BME280_pressure;Samples;Min_cycle;Max_cycle;Signal;HPM_P1;HPM_P2
2022/12/30 00:01:00;;;;;;;17.52;9.55;;;;;;;6.39;73.97;98621.30;1688534;84;21047;-39
2022/12/30 00:03:26;;;;;;;15.60;9.03;;;;;;;6.35;74.33;98631.05;1688505;85;21540;-39
2022/12/30 00:05:52;;;;;;;15.15;9.50;;;;;;;6.34;74.29;98637.17;1688502;85;21019;-38
2022/12/30 00:11:02;;;;;;;14.70;9.58;;;;;;;6.33;74.49;98635.47;1688547;85;21015;-39
2022/12/30 00:33:55;;;;;;;18.17;10.10;;;;;;;6.20;75.00;98652.66;1688576;85;20995;-41
2022/12/30 00:36:23;;;;;;;18.42;9.80;;;;;;;6.16;74.98;98655.88;1688684;85;21011;-40
2022/12/30 00:38:49;;;;;;;19.17;10.32;;;;;;;6.15;75.10;98656.34;1688486;85;20975;-41
2022/12/30 00:43:58;;;;;;;22.98;10.65;;;;;;;6.13;75.24;98639.04;1688558;85;21055;-38
2022/12/30 00:46:25;;;;;;;20.60;10.50;;;;;;;6.13;75.31;98651.66;1688501;85;21083;-40
2022/12/30 00:57:05;;;;;;;18.12;10.45;;;;;;;6.06;75.52;98648.95;1674825;86;21580;-40
2022/12/30 00:59:31;;;;;;;16.95;10.70;;;;;;;5.91;76.45;98660.92;1674774;85;21087;-37
2022/12/30 01:01:57;;;;;;;18.45;10.05;;;;;;;5.96;75.78;98653.73;1674736;86;21552;-39
2022/12/30 01:04:23;;;;;;;17.17;9.73;;;;;;;5.98;76.05;98660.66;1675026;85;21015;-39
2022/12/30 01:06:48;;;;;;;24.02;10.65;;;;;;;5.89;76.75;98656.20;1674805;85;21019;-39
2022/12/30 01:09:14;;;;;;;19.48;10.20;;;;;;;5.93;76.26;98659.52;1674879;85;21012;-38
2022/12/30 01:11:40;;;;;;;19.95;10.58;;;;;;;5.96;76.13;98658.12;1674942;85;21536;-40
2022/12/30 01:14:06;;;;;;;19.60;10.48;;;;;;;5.96;75.95;98651.59;1675036;86;20992;-37
2022/12/30 01:16:32;;;;;;;19.95;10.35;;;;;;;5.94;76.47;98665.14;1674903;86;21568;-38
2022/12/30 01:18:58;;;;;;;17.85;10.60;;;;;;;5.89;76.91;98670.56;1675051;86;21540;-38
2022/12/30 01:21:24;;;;;;;17.40;10.32;;;;;;;5.93;76.21;98668.66;1674986;85;20996;-40
2022/12/30 01:23:50;;;;;;;19.55;10.70;;;;;;;5.84;77.16;98666.47;1674941;84;21016;-40
2022/12/30 01:26:16;;;;;;;18.33;10.80;;;;;;;5.84;76.95;98669.08;1675187;85;21533;-39
2022/12/30 01:28:42;;;;;;;18.50;10.60;;;;;;;5.82;77.41;98668.31;1673126;85;21135;-38
2022/12/30 01:31:10;;;;;;;19.92;10.13;;;;;;;5.86;77.01;98656.38;1651865;85;21528;-38
2022/12/30 01:33:37;;;;;;;21.93;10.38;;;;;;;5.88;77.11;98656.30;1684269;85;21476;-40
2022/12/30 01:36:05;;;;;;;17.00;10.18;;;;;;;5.90;77.10;98655.77;1684515;85;21015;-39
2022/12/30 01:38:32;;;;;;;21.37;10.93;;;;;;;5.93;77.03;98653.00;1684285;84;21010;-41
2022/12/30 01:40:58;;;;;;;21.45;10.45;;;;;;;5.97;77.22;98651.99;1684478;84;21556;-38
2022/12/30 01:43:42;;;;;;;19.05;10.78;;;;;;;6.00;77.08;98647.91;1684471;84;21501;-40
2022/12/30 01:46:09;;;;;;;19.48;10.43;;;;;;;6.00;77.00;98662.73;1683432;85;21055;-41
2022/12/30 01:48:36;;;;;;;21.90;11.55;;;;;;;5.99;77.13;98665.81;1681535;83;21043;-41
2022/12/30 01:51:13;;;;;;;16.02;10.03;;;;;;;6.05;76.96;98668.13;1678039;85;21008;-40
2022/12/30 01:53:46;;;;;;;18.55;11.08;;;;;;;6.10;76.83;98667.45;1677446;85;21052;-39
2022/12/30 01:56:28;;;;;;;20.88;10.90;;;;;;;6.11;76.77;98660.02;1677801;85;21102;-39
2022/12/30 01:59:12;;;;;;;17.42;10.70;;;;;;;6.15;76.76;98669.39;1677911;85;21055;-41
2022/12/30 02:01:39;;;;;;;17.87;10.72;;;;;;;6.21;76.74;98668.73;1676350;85;20992;-39
2022/12/30 02:04:13;;;;;;;20.17;11.08;;;;;;;6.25;76.60;98665.04;1675053;85;21505;-38
2022/12/30 02:06:56;;;;;;;18.87;10.05;;;;;;;6.30;76.45;98669.59;1674933;85;21012;-38
2022/12/30 02:09:23;;;;;;;19.65;10.82;;;;;;;6.21;76.49;98666.11;1670811;84;21012;-39
2022/12/30 02:11:49;;;;;;;19.00;10.78;;;;;;;6.25;76.54;98673.71;1675145;85;21016;-38
2022/12/30 02:14:15;;;;;;;18.15;10.98;;;;;;;6.27;76.41;98674.95;1674892;84;21035;-39
2022/12/30 02:17:21;;;;;;;19.67;9.93;;;;;;;6.30;76.35;98676.95;1675105;85;21059;-40
2022/12/30 02:20:15;;;;;;;17.80;10.50;;;;;;;6.27;76.40;98671.03;1674854;86;21508;-39
2022/12/30 02:23:05;;;;;;;16.97;10.05;;;;;;;6.25;76.41;98679.41;1674884;86;21060;-41
2022/12/30 02:25:39;;;;;;;19.17;10.88;;;;;;;6.21;76.51;98685.70;1675125;85;21023;-39
2022/12/30 02:28:42;;;;;;;15.93;10.03;;;;;;;6.23;76.63;98689.08;1672416;85;21016;-38
2022/12/30 02:31:28;;;;;;;18.23;10.15;;;;;;;6.23;76.52;98690.38;1674033;85;21012;-41
2022/12/30 02:34:09;;;;;;;22.82;10.75;;;;;;;6.21;76.37;98675.25;1669142;84;21051;-38
2022/12/30 02:37:07;;;;;;;18.98;11.03;;;;;;;6.18;76.63;98678.00;1674920;85;21043;-39
2022/12/30 02:40:04;;;;;;;18.50;10.10;;;;;;;6.12;76.79;98678.67;1674450;85;21111;-39
2022/12/30 02:45:48;;;;;;;18.60;11.22;;;;;;;6.13;77.08;98686.90;1698102;84;20415;-38
2022/12/30 02:48:18;;;;;;;22.55;11.38;;;;;;;6.18;76.95;98692.36;1699691;84;20985;-38
2022/12/30 02:53:34;;;;;;;17.47;10.43;;;;;;;6.19;76.88;98681.01;1703830;84;21000;-41
2022/12/30 02:56:00;;;;;;;24.45;10.70;;;;;;;6.20;77.00;98682.69;1673963;84;21028;-38
2022/12/30 02:58:31;;;;;;;20.25;10.55;;;;;;;6.22;76.84;98687.38;1698093;84;21016;-37
2022/12/30 03:04:48;;;;;;;16.85;9.70;;;;;;;6.23;76.84;98681.24;1635551;86;21204;-39
2022/12/30 03:07:40;;;;;;;19.25;10.75;;;;;;;6.24;76.80;98694.67;1634460;86;21038;-40
2022/12/30 03:13:13;;;;;;;17.17;10.65;;;;;;;6.29;76.61;98695.30;1698288;84;21035;-36
2022/12/30 03:15:48;;;;;;;;;;;;;;;6.26;76.53;98698.08;1700449;82;21032;-40
2022/12/30 03:18:16;;;;;;;19.45;10.60;;;;;;;6.23;76.66;98702.12;1696949;84;20119;-38
2022/12/30 03:20:44;;;;;;;16.30;10.15;;;;;;;6.24;76.49;98708.59;1698150;84;21068;-39
2022/12/30 03:28:46;;;;;;;13.35;8.98;;;;;;;6.24;76.52;98709.89;1678285;84;21124;-41
2022/12/30 03:31:15;;;;;;;23.10;10.35;;;;;;;6.21;76.58;98710.50;1697993;84;21036;-39
2022/12/30 03:33:42;;;;;;;17.35;10.40;;;;;;;6.20;76.58;98710.09;1698006;84;20996;-38
2022/12/30 03:36:27;;;;;;;20.00;11.00;;;;;;;6.19;76.85;98702.73;1698225;84;21040;-38
2022/12/30 03:39:19;;;;;;;22.65;10.82;;;;;;;6.20;76.81;98704.41;1698009;84;21028;-40
2022/12/30 03:41:49;;;;;;;19.17;10.20;;;;;;;6.20;76.87;98713.55;1697908;83;21532;-40
2022/12/30 03:44:17;;;;;;;16.12;9.70;;;;;;;6.21;76.92;98702.20;1698045;84;21537;-37
2022/12/30 03:46:46;;;;;;;17.87;10.43;;;;;;;6.22;77.00;98706.52;1697941;84;21492;-40
2022/12/30 03:49:13;;;;;;;19.73;9.90;;;;;;;6.23;76.93;98705.58;1698055;84;21080;-39
2022/12/30 03:51:38;;;;;;;19.48;10.45;;;;;;;6.26;77.10;98708.52;1676551;84;21012;-38
2022/12/30 03:54:05;;;;;;;15.20;9.33;;;;;;;6.27;77.12;98719.34;1697676;84;21084;-39
2022/12/30 03:56:31;;;;;;;16.95;9.45;;;;;;;6.28;77.12;98721.88;1698138;84;21088;-39
2022/12/30 03:58:57;;;;;;;20.60;9.65;;;;;;;6.35;77.14;98722.45;1698028;84;21020;-39
2022/12/30 04:01:22;;;;;;;19.25;9.68;;;;;;;6.36;77.09;98720.67;1698016;84;21145;-38
2022/12/30 04:03:48;;;;;;;16.12;9.53;;;;;;;6.40;77.01;98721.75;1698041;84;21099;-40
2022/12/30 04:06:14;;;;;;;17.07;9.23;;;;;;;6.43;76.91;98724.69;1698088;84;21016;-40
2022/12/30 04:08:40;;;;;;;16.10;8.95;;;;;;;6.44;76.94;98728.55;1698178;84;21012;-47
2022/12/30 04:11:06;;;;;;;14.95;9.28;;;;;;;6.51;76.88;98737.78;1698028;84;21498;-38
2022/12/30 04:13:32;;;;;;;14.75;9.30;;;;;;;6.52;76.75;98739.45;1698066;84;21008;-39
2022/12/30 04:15:58;;;;;;;18.17;9.68;;;;;;;6.51;76.56;98745.63;1698023;84;21032;-39
2022/12/30 04:18:24;;;;;;;17.77;9.25;;;;;;;6.47;76.71;98737.98;1698075;84;20993;-39
2022/12/30 04:20:50;;;;;;;13.62;9.50;;;;;;;6.52;76.48;98745.16;1698123;84;21153;-37
2022/12/30 04:23:17;;;;;;;14.73;8.75;;;;;;;6.47;76.65;98745.82;1697951;84;21013;-39
2022/12/30 04:25:43;;;;;;;12.30;8.58;;;;;;;6.42;76.68;98747.36;1699192;83;20976;-38
2022/12/30 04:28:09;;;;;;;16.10;9.73;;;;;;;6.46;76.67;98746.29;1685901;85;21000;-38
2022/12/30 04:30:35;;;;;;;13.18;9.20;;;;;;;6.48;76.61;98749.67;1706403;83;21008;-39
2022/12/30 04:33:01;;;;;;;15.93;9.80;;;;;;;6.48;76.60;98740.53;1708315;83;21011;-37
2022/12/30 04:35:29;;;;;;;14.15;9.58;;;;;;;6.49;76.64;98747.90;1706876;83;21011;-39
2022/12/30 04:37:54;;;;;;;14.03;8.83;;;;;;;6.48;76.61;98747.06;1702553;83;21003;-38
2022/12/30 04:40:20;;;;;;;14.87;9.95;;;;;;;6.48;76.46;98748.84;1701414;83;21519;-40
2022/12/30 04:42:46;;;;;;;15.98;9.50;;;;;;;6.42;76.88;98743.88;1695980;84;21075;-38
2022/12/30 04:45:12;;;;;;;14.23;9.70;;;;;;;6.49;76.87;98750.52;1695894;84;21062;-38
2022/12/30 04:47:38;;;;;;;14.78;8.75;;;;;;;6.48;77.05;98741.84;1706534;83;21015;-39
2022/12/30 04:50:07;;;;;;;14.83;9.35;;;;;;;6.49;77.12;98746.16;1712232;83;20999;-39
2022/12/30 04:52:33;;;;;;;15.83;9.43;;;;;;;6.53;77.14;98754.23;1720907;83;20964;-40
2022/12/30 04:54:58;;;;;;;14.10;8.88;;;;;;;6.58;77.14;98755.77;1695128;83;21507;-38
2022/12/30 04:57:24;;;;;;;15.05;9.05;;;;;;;6.62;77.07;98762.53;1708408;83;21041;-40
2022/12/30 04:59:50;;;;;;;16.60;9.23;;;;;;;6.63;77.12;98759.84;1683310;83;21038;-38
2022/12/30 05:02:16;;;;;;;17.23;9.40;;;;;;;6.68;77.09;98766.17;1684539;83;21026;-38
2022/12/30 05:04:42;;;;;;;16.87;8.23;;;;;;;6.73;77.03;98765.47;1728233;83;21594;-37
2022/12/30 05:07:07;;;;;;;12.23;8.30;;;;;;;6.77;77.01;98776.63;1721668;83;20983;-39
2022/12/30 05:09:33;;;;;;;15.18;8.53;;;;;;;6.68;77.04;98767.02;1718414;83;21027;-40
2022/12/30 05:11:59;;;;;;;15.70;8.78;;;;;;;6.73;76.88;98770.26;1718406;83;21019;-37
2022/12/30 05:14:25;;;;;;;19.10;9.25;;;;;;;6.75;76.78;98774.55;1718402;82;21010;-37
2022/12/30 05:16:51;;;;;;;16.50;9.33;;;;;;;6.75;76.72;98782.39;1718420;83;21003;-38
2022/12/30 05:19:16;;;;;;;16.05;9.40;;;;;;;6.75;76.67;98787.61;1718407;83;21019;-39
2022/12/30 05:21:42;;;;;;;16.67;9.40;;;;;;;6.76;76.51;98799.77;1718413;83;21007;-38
2022/12/30 05:26:54;;;;;;;14.50;9.13;;;;;;;6.70;76.59;98790.46;1718404;83;20994;-39
2022/12/30 05:29:21;;;;;;;20.35;9.90;;;;;;;6.66;76.77;98791.53;1718496;83;20994;-40
2022/12/30 05:31:46;;;;;;;18.98;9.55;;;;;;;6.65;76.62;98790.66;1718361;83;21007;-40
2022/12/30 05:34:12;;;;;;;12.80;8.98;;;;;;;6.64;76.72;98804.67;1718448;83;21572;-39
2022/12/30 05:36:38;;;;;;;11.95;8.38;;;;;;;6.61;76.98;98803.96;1676098;83;20983;-40
2022/12/30 05:39:05;;;;;;;17.98;9.95;;;;;;;6.56;77.39;98809.86;1718287;82;21003;-39
2022/12/30 05:41:31;;;;;;;13.93;8.93;;;;;;;6.57;77.26;98816.76;1718665;83;20975;-40
2022/12/30 05:43:57;;;;;;;17.48;8.58;;;;;;;6.56;77.33;98821.61;1716130;83;21027;-39
2022/12/30 05:46:23;;;;;;;13.85;9.25;;;;;;;6.45;78.10;98825.55;1716106;83;21035;-39
2022/12/30 05:48:49;;;;;;;16.00;9.78;;;;;;;6.50;77.90;98831.42;1716090;83;21102;-38
2022/12/30 05:51:15;;;;;;;17.37;9.55;;;;;;;6.53;77.75;98832.59;1716056;83;21039;-38
2022/12/30 05:53:40;;;;;;;16.90;9.15;;;;;;;6.54;77.96;98830.35;1716039;83;21140;-38
2022/12/30 05:56:07;;;;;;;12.37;8.33;;;;;;;6.53;78.08;98829.11;1716062;83;21011;-39
2022/12/30 05:58:33;;;;;;;15.83;9.60;;;;;;;6.57;78.04;98832.44;1716057;83;20983;-38
2022/12/30 06:00:59;;;;;;;17.48;9.23;;;;;;;6.58;77.95;98836.75;1716060;83;21074;-39
2022/12/30 06:03:25;;;;;;;15.78;8.60;;;;;;;6.59;78.03;98834.54;1716082;82;21014;-39
2022/12/30 06:06:01;;;;;;;12.75;8.75;;;;;;;6.62;77.87;98840.91;1716084;83;21046;-39
2022/12/30 06:08:27;;;;;;;15.63;8.73;;;;;;;6.58;77.95;98845.43;1716197;83;21019;-38
2022/12/30 06:10:53;;;;;;;15.40;9.23;;;;;;;6.59;78.02;98838.46;1716308;83;21015;-38
2022/12/30 06:13:20;;;;;;;16.67;8.95;;;;;;;6.61;78.02;98845.77;1716083;82;21135;-38
2022/12/30 06:15:46;;;;;;;16.55;8.68;;;;;;;6.62;77.86;98848.75;1716078;83;21015;-39
2022/12/30 06:18:12;;;;;;;14.87;9.08;;;;;;;6.53;78.14;98857.84;1716233;83;21015;-40
2022/12/30 06:20:37;;;;;;;17.20;10.23;;;;;;;6.53;78.27;98856.11;1716064;83;20971;-39
2022/12/30 06:23:04;;;;;;;15.65;9.10;;;;;;;6.58;77.93;98856.34;1716029;83;21011;-40
2022/12/30 06:25:32;;;;;;;13.95;9.03;;;;;;;6.45;78.62;98860.81;1716072;83;21023;-40
2022/12/30 06:27:58;;;;;;;19.27;9.70;;;;;;;6.52;78.10;98860.09;1716085;83;21007;-39
2022/12/30 06:30:24;;;;;;;13.48;8.95;;;;;;;6.51;78.05;98867.09;1716083;83;21151;-39
2022/12/30 06:32:49;;;;;;;19.00;10.40;;;;;;;6.49;78.22;98871.54;1716206;83;21043;-40
2022/12/30 06:35:15;;;;;;;15.85;9.90;;;;;;;6.47;78.41;98877.73;1716039;83;21019;-38
2022/12/30 06:37:41;;;;;;;17.52;9.95;;;;;;;6.46;78.15;98885.20;1716012;83;21020;-39
2022/12/30 06:40:09;;;;;;;20.10;10.20;;;;;;;6.39;78.86;98887.23;1716081;82;21003;-40
2022/12/30 06:42:34;;;;;;;16.12;9.58;;;;;;;6.38;78.99;98895.13;1707898;83;21052;-40
2022/12/30 06:45:00;;;;;;;16.82;9.43;;;;;;;6.39;79.16;98897.67;1701892;83;21011;-40
2022/12/30 06:47:26;;;;;;;14.63;8.93;;;;;;;6.43;79.07;98895.77;1708505;83;21007;-39
2022/12/30 06:49:52;;;;;;;16.57;9.33;;;;;;;6.44;79.13;98901.37;1708336;83;20980;-40
2022/12/30 06:52:17;;;;;;;14.90;9.23;;;;;;;6.49;79.06;98913.77;1708393;83;20961;-38
2022/12/30 06:54:43;;;;;;;21.55;9.38;;;;;;;6.52;79.06;98921.48;1708452;83;21508;-39
2022/12/30 06:57:09;;;;;;;13.90;9.40;;;;;;;6.53;78.92;98923.16;1706864;83;21552;-39
2022/12/30 06:59:35;;;;;;;15.35;9.23;;;;;;;6.54;78.90;98931.40;1701795;83;21007;-39
2022/12/30 07:02:01;;;;;;;12.82;8.83;;;;;;;6.54;78.88;98924.40;1714460;83;21015;-39
2022/12/30 07:04:27;;;;;;;13.38;8.88;;;;;;;6.58;78.92;98933.41;1720500;83;21594;-39
2022/12/30 07:06:52;;;;;;;14.53;9.18;;;;;;;6.60;78.91;98938.11;1710950;82;21047;-39
2022/12/30 07:09:18;;;;;;;15.68;8.98;;;;;;;6.58;79.08;98938.17;1720015;83;21500;-39
2022/12/30 07:11:44;;;;;;;17.12;9.60;;;;;;;6.62;78.99;98941.50;1713943;83;20987;-38
2022/12/30 07:14:10;;;;;;;14.85;8.90;;;;;;;6.56;79.28;98940.48;1702565;83;21188;-39
2022/12/30 07:16:36;;;;;;;20.57;8.95;;;;;;;6.57;79.17;98940.84;1701705;83;21015;-38
2022/12/30 07:19:02;;;;;;;14.45;9.55;;;;;;;6.60;79.09;98949.40;1686352;84;20976;-39
2022/12/30 07:21:28;;;;;;;15.08;8.70;;;;;;;6.59;79.22;98945.11;1685907;84;21008;-38
2022/12/30 07:23:54;;;;;;;15.58;9.28;;;;;;;6.61;79.28;98949.80;1712341;83;20983;-39
2022/12/30 07:26:20;;;;;;;18.35;9.58;;;;;;;6.62;79.24;98952.82;1708384;83;21131;-39
2022/12/30 07:28:46;;;;;;;15.55;9.38;;;;;;;6.66;79.03;98949.14;1714831;83;20988;-39
2022/12/30 07:31:11;;;;;;;18.10;9.68;;;;;;;6.70;78.95;98955.09;1702544;83;21039;-40
2022/12/30 07:33:37;;;;;;;14.15;9.18;;;;;;;6.70;79.00;98958.53;1701605;83;21055;-38
2022/12/30 07:36:04;;;;;;;15.60;9.13;;;;;;;6.72;78.99;98959.78;1698888;83;21027;-38
2022/12/30 07:38:30;;;;;;;14.53;8.33;;;;;;;6.76;78.95;98962.64;1705138;83;21046;-38
2022/12/30 07:40:56;;;;;;;19.62;9.60;;;;;;;6.75;78.88;98964.87;1686549;84;21019;-40
2022/12/30 07:43:21;;;;;;;20.32;8.83;;;;;;;6.81;78.78;98971.13;1685908;84;21031;-38
2022/12/30 07:45:47;;;;;;;15.45;9.38;;;;;;;6.79;78.70;98974.27;1713751;83;20983;-37
2022/12/30 07:48:13;;;;;;;16.50;9.43;;;;;;;6.78;78.75;98981.70;1688880;83;21020;-39
2022/12/30 07:50:39;;;;;;;19.45;8.80;;;;;;;6.74;78.90;98984.08;1683974;84;21572;-40
2022/12/30 07:53:05;;;;;;;14.03;8.95;;;;;;;6.76;78.67;98984.85;1702103;84;20964;-38
2022/12/30 07:55:32;;;;;;;15.70;8.18;;;;;;;6.70;78.85;98991.67;1700517;83;21549;-38
2022/12/30 07:57:58;;;;;;;14.45;7.95;;;;;;;6.66;79.16;98991.42;1691801;83;21817;-40
2022/12/30 08:00:24;;;;;;;17.10;8.08;;;;;;;6.68;78.89;98994.81;1704854;83;21051;-39
2022/12/30 08:02:49;;;;;;;14.63;8.23;;;;;;;6.70;78.82;99000.81;1685207;84;21064;-41
2022/12/30 08:05:15;;;;;;;30.97;13.50;;;;;;;6.69;79.18;98987.34;1708834;83;21058;-39
2022/12/30 08:07:42;;;;;;;20.75;10.35;;;;;;;6.63;79.82;98995.47;1687332;83;20981;-40
2022/12/30 08:10:08;;;;;;;17.50;8.33;;;;;;;6.70;79.73;98999.51;1692662;83;21036;-40
2022/12/30 08:12:35;;;;;;;16.23;8.43;;;;;;;6.72;79.85;99002.89;1698275;83;21064;-39
2022/12/30 08:15:01;;;;;;;12.07;7.73;;;;;;;6.80;79.68;99009.92;1686595;84;21447;-40
2022/12/30 08:17:28;;;;;;;14.60;7.53;;;;;;;6.84;79.48;99016.73;1702259;83;21000;-38
2022/12/30 08:19:54;;;;;;;17.80;8.55;;;;;;;6.91;79.32;99016.85;1713522;83;21049;-40
2022/12/30 08:22:20;;;;;;;14.43;6.97;;;;;;;6.96;79.21;99015.80;1688501;83;20986;-40
2022/12/30 08:24:46;;;;;;;14.78;7.33;;;;;;;6.96;79.18;99024.47;1683824;84;20987;-41
2022/12/30 08:27:12;;;;;;;12.82;6.83;;;;;;;7.00;79.05;99027.80;1662684;86;21007;-41
2022/12/30 08:29:38;;;;;;;13.20;6.78;;;;;;;6.99;79.20;99043.11;1662806;86;21028;-40
2022/12/30 08:32:04;;;;;;;19.52;6.70;;;;;;;7.01;79.23;99037.35;1662756;85;21023;-40
2022/12/30 08:34:30;;;;;;;11.43;6.15;;;;;;;7.01;79.24;99046.04;1662707;86;21008;-39
2022/12/30 08:36:56;;;;;;;13.22;6.85;;;;;;;7.06;79.08;99055.00;1662707;86;21027;-42
2022/12/30 08:39:22;;;;;;;13.55;7.08;;;;;;;7.02;79.15;99050.80;1662746;86;20996;-40
2022/12/30 08:41:47;;;;;;;11.63;6.83;;;;;;;7.05;79.27;99065.05;1662720;86;21460;-40
2022/12/30 08:44:14;;;;;;;13.10;6.70;;;;;;;7.03;79.18;99062.50;1662645;86;21509;-39
2022/12/30 08:46:40;;;;;;;11.95;6.78;;;;;;;7.09;79.12;99069.22;1662753;86;21012;-39
2022/12/30 08:49:08;;;;;;;11.60;6.27;;;;;;;7.09;79.23;99075.33;1662990;86;21030;-40
2022/12/30 08:51:35;;;;;;;12.93;6.20;;;;;;;7.11;79.08;99083.94;1662716;86;20999;-39
2022/12/30 08:54:00;;;;;;;15.15;6.00;;;;;;;7.06;79.24;99088.98;1662702;86;21027;-41
2022/12/30 08:56:31;;;;;;;11.60;6.78;;;;;;;7.11;79.02;99092.22;1662665;86;21019;-40
2022/12/30 08:58:58;;;;;;;12.73;6.83;;;;;;;7.15;79.08;99098.16;1662680;86;21094;-39
2022/12/30 09:01:28;;;;;;;11.60;6.15;;;;;;;7.28;78.79;99098.88;1662858;86;21023;-39
2022/12/30 09:03:55;;;;;;;12.68;6.30;;;;;;;7.40;78.46;99100.07;1662656;86;21016;-39
2022/12/30 09:06:24;;;;;;;11.70;6.03;;;;;;;7.57;78.34;99097.17;1662947;86;21035;-39
2022/12/30 09:08:51;;;;;;;13.28;6.15;;;;;;;7.58;77.44;99099.69;1662701;86;21176;-38
2022/12/30 09:11:25;;;;;;;12.10;6.15;;;;;;;7.56;77.40;99098.92;1662854;86;21478;-38
2022/12/30 09:13:52;;;;;;;13.25;5.42;;;;;;;7.54;77.16;99099.45;1662622;86;21082;-38
2022/12/30 09:16:21;;;;;;;11.22;5.87;;;;;;;7.51;77.09;99096.97;1674738;84;20995;-41
2022/12/30 09:18:48;;;;;;;10.28;5.67;;;;;;;7.44;77.02;99104.27;1714442;84;21560;-38
2022/12/30 09:21:14;;;;;;;13.58;6.72;;;;;;;7.49;77.19;99111.45;1703625;83;20991;-42
2022/12/30 09:23:40;;;;;;;11.40;6.00;;;;;;;7.47;76.92;99109.81;1701076;84;21595;-40
2022/12/30 09:26:08;;;;;;;15.55;6.53;;;;;;;7.49;76.94;99119.73;1714481;84;21000;-40
2022/12/30 09:28:35;;;;;;;14.28;7.00;;;;;;;7.47;76.74;99113.27;1714571;84;21528;-38
2022/12/30 09:31:00;;;;;;;10.43;5.87;;;;;;;7.47;76.79;99112.42;1713292;84;21572;-39
2022/12/30 09:33:26;;;;;;;14.03;5.87;;;;;;;7.45;76.52;99116.87;1694434;84;20985;-41
2022/12/30 09:35:52;;;;;;;10.78;5.40;;;;;;;7.49;76.61;99118.44;1702086;84;21397;-39
2022/12/30 09:38:18;;;;;;;10.15;4.97;;;;;;;7.52;76.46;99115.69;1711281;84;21504;-39
2022/12/30 09:41:11;;;;;;;13.40;5.37;;;;;;;7.45;76.04;99119.03;1700748;84;21623;-39
2022/12/30 09:44:07;;;;;;;14.90;7.03;;;;;;;7.57;76.19;99121.56;1690787;83;21031;-41
2022/12/30 09:46:46;;;;;;;20.55;6.65;;;;;;;7.56;76.04;99126.39;1686232;84;21019;-39
2022/12/30 09:49:29;;;;;;;17.77;8.08;;;;;;;7.59;75.88;99114.48;1686739;85;21023;-40
2022/12/30 09:52:11;;;;;;;17.05;5.83;;;;;;;7.59;75.50;99118.88;1675315;84;21008;-39
2022/12/30 09:54:43;;;;;;;11.18;5.08;;;;;;;7.67;75.42;99114.97;1687169;85;21015;-39
2022/12/30 10:00:00;;;;;;;23.25;8.15;;;;;;;7.73;75.25;99111.69;1689055;85;20991;-39
2022/12/30 10:02:34;;;;;;;14.85;4.60;;;;;;;7.70;75.21;99107.45;1686485;84;21001;-40
2022/12/30 10:05:00;;;;;;;12.43;5.97;;;;;;;7.69;74.96;99111.84;1679445;84;21057;-39
2022/12/30 10:07:46;;;;;;;14.58;5.35;;;;;;;7.72;74.91;99122.63;1682970;85;21417;-43
2022/12/30 10:10:26;;;;;;;8.25;4.00;;;;;;;7.78;75.09;99125.41;1668928;85;21005;-40
2022/12/30 10:13:00;;;;;;;12.23;4.33;;;;;;;7.74;74.70;99119.47;1688525;85;21452;-39
2022/12/30 10:15:37;;;;;;;13.18;4.22;;;;;;;7.78;74.83;99116.25;1686029;85;20952;-39
2022/12/30 10:18:26;;;;;;;;;;;;;;;7.81;74.74;99117.42;1690260;83;20975;-40
2022/12/30 10:21:19;;;;;;;9.13;3.90;;;;;;;7.81;74.44;99130.05;1686322;84;20406;-40
2022/12/30 10:23:59;;;;;;;11.30;3.85;;;;;;;7.83;74.57;99128.67;1682073;85;20957;-39
2022/12/30 10:26:33;;;;;;;7.12;3.35;;;;;;;7.87;74.36;99139.37;1658861;85;20979;-38
2022/12/30 10:29:05;;;;;;;11.57;3.67;;;;;;;7.88;73.98;99137.16;1674842;84;20983;-40
2022/12/30 10:31:35;;;;;;;8.95;3.60;;;;;;;7.94;74.10;99137.33;1653806;85;20987;-40
2022/12/30 10:34:18;;;;;;;14.73;4.12;;;;;;;8.03;74.04;99140.36;1678088;84;20999;-40
2022/12/30 10:37:00;;;;;;;13.22;4.05;;;;;;;8.06;73.85;99144.62;1669787;85;20948;-39
2022/12/30 10:39:47;;;;;;;7.75;3.60;;;;;;;7.96;72.12;99148.11;1680734;84;20980;-39
2022/12/30 10:42:30;;;;;;;15.05;3.70;;;;;;;8.10;72.73;99146.16;1685498;85;21446;-39
2022/12/30 10:45:24;;;;;;;11.48;3.70;;;;;;;8.15;72.34;99145.93;1687262;83;21406;-39
2022/12/30 10:48:17;;;;;;;9.60;2.95;;;;;;;8.30;71.75;99139.97;1712266;83;20984;-39
2022/12/30 10:50:47;;;;;;;15.63;3.58;;;;;;;8.43;70.64;99140.25;1679429;83;21047;-39
2022/12/30 10:53:21;;;;;;;12.98;2.90;;;;;;;8.52;69.92;99139.80;1706808;83;20943;-38
2022/12/30 10:55:51;;;;;;;9.53;3.10;;;;;;;8.59;70.71;99145.59;1717122;83;20983;-40
2022/12/30 10:58:41;;;;;;;5.33;2.30;;;;;;;8.60;69.32;99161.69;1691061;83;20981;-38
2022/12/30 11:01:13;;;;;;;9.40;2.42;;;;;;;8.43;68.70;99158.59;1686816;84;21456;-38
2022/12/30 11:03:44;;;;;;;12.20;2.92;;;;;;;8.38;69.07;99150.07;1688649;83;21569;-37
2022/12/30 11:06:29;;;;;;;5.75;2.52;;;;;;;8.31;69.16;99142.95;1667068;83;20985;-39
2022/12/30 11:09:15;;;;;;;9.53;2.35;;;;;;;8.34;69.63;99137.58;1707607;83;21044;-40
2022/12/30 11:14:43;;;;;;;12.30;2.55;;;;;;;8.33;69.40;99146.82;1706315;83;20959;-38
2022/12/30 11:17:20;;;;;;;6.08;2.55;;;;;;;8.35;69.18;99152.39;1704238;83;21039;-39
2022/12/30 11:19:52;;;;;;;10.50;2.25;;;;;;;8.34;69.20;99148.53;1712278;83;21473;-41
2022/12/30 11:22:19;;;;;;;7.00;2.37;;;;;;;8.37;69.34;99150.54;1712345;83;20970;-40
2022/12/30 11:25:06;;;;;;;6.55;2.42;;;;;;;8.37;67.96;99153.16;1685306;83;20979;-39
2022/12/30 11:27:42;;;;;;;8.48;2.87;;;;;;;8.41;68.41;99157.80;1716365;83;20964;-39
2022/12/30 11:30:24;;;;;;;9.53;3.07;;;;;;;8.41;68.03;99146.84;1695708;83;21453;-40
2022/12/30 11:32:50;;;;;;;13.93;2.58;;;;;;;8.42;67.85;99148.59;1716608;83;20991;-39
2022/12/30 11:35:46;;;;;;;10.65;2.50;;;;;;;8.44;67.56;99146.73;1705683;83;20968;-40
2022/12/30 11:38:33;;;;;;;9.88;2.77;;;;;;;8.51;67.56;99151.66;1695136;83;21394;-39
2022/12/30 11:41:19;;;;;;;6.42;2.62;;;;;;;8.57;67.88;99159.24;1718252;83;21018;-39
2022/12/30 11:44:02;;;;;;;8.20;2.58;;;;;;;8.59;67.70;99157.39;1709329;83;20998;-39
2022/12/30 11:46:38;;;;;;;11.22;2.52;;;;;;;8.61;67.70;99171.27;1666590;85;21515;-43
2022/12/30 11:49:26;;;;;;;7.78;2.35;;;;;;;8.59;67.03;99185.75;1688726;84;20959;-43
2022/12/30 11:52:05;;;;;;;7.60;2.15;;;;;;;8.59;67.10;99182.30;1702641;83;21007;-40
2022/12/30 11:54:35;;;;;;;11.85;3.30;;;;;;;8.60;67.26;99180.04;1663302;83;20949;-41
2022/12/30 11:57:21;;;;;;;8.63;2.87;;;;;;;8.61;66.91;99171.27;1703557;83;21033;-42
2022/12/30 11:59:57;;;;;;;7.83;2.90;;;;;;;8.60;66.48;99178.73;1689274;85;20946;-40
2022/12/30 12:02:36;;;;;;;7.53;2.60;;;;;;;8.60;66.16;99180.04;1676567;85;20997;-39
2022/12/30 12:05:11;;;;;;;10.65;3.12;;;;;;;8.63;66.81;99169.41;1686195;84;21035;-41
2022/12/30 12:07:43;;;;;;;8.48;2.55;;;;;;;8.58;65.93;99165.70;1672633;83;21606;-41
2022/12/30 12:10:34;;;;;;;8.55;2.33;;;;;;;8.55;65.54;99169.80;1699323;83;20984;-38
2022/12/30 12:13:30;;;;;;;6.05;2.27;;;;;;;8.62;66.28;99164.64;1715727;83;20944;-40
2022/12/30 12:15:58;;;;;;;11.53;3.10;;;;;;;8.62;66.36;99158.53;1669219;84;20968;-38
2022/12/30 12:18:47;;;;;;;7.08;2.80;;;;;;;8.61;66.11;99155.54;1698516;83;20947;-40
2022/12/30 12:21:29;;;;;;;7.83;2.75;;;;;;;8.70;66.47;99160.33;1699464;83;21014;-39
2022/12/30 12:24:09;;;;;;;7.58;2.58;;;;;;;8.60;66.22;99156.02;1705054;83;21508;-42
2022/12/30 12:26:49;;;;;;;9.48;3.05;;;;;;;8.61;66.43;99156.84;1683367;85;21084;-41
2022/12/30 12:29:15;;;;;;;5.97;2.55;;;;;;;8.62;66.71;99151.98;1690610;84;21504;-39
2022/12/30 12:32:07;;;;;;;15.55;3.15;;;;;;;8.48;66.56;99148.74;1676447;83;21015;-40
2022/12/30 12:35:14;;;;;;;10.65;2.80;;;;;;;8.59;67.01;99156.08;1704515;83;20987;-42
2022/12/30 12:38:05;;;;;;;10.45;3.00;;;;;;;8.53;65.72;99149.38;1694631;83;20982;-38
2022/12/30 12:41:12;;;;;;;6.75;2.50;;;;;;;8.53;66.42;99154.61;1687918;85;21020;-38
2022/12/30 12:44:22;;;;;;;13.15;3.45;;;;;;;8.50;66.08;99151.30;1703434;83;21444;-39
2022/12/30 12:47:14;;;;;;;7.75;3.33;;;;;;;8.47;65.95;99152.27;1684542;83;20968;-41
2022/12/30 12:49:57;;;;;;;10.32;2.40;;;;;;;8.43;65.84;99146.33;1702973;82;20971;-40
2022/12/30 12:53:02;;;;;;;7.83;2.50;;;;;;;8.44;65.88;99150.66;1671197;85;20972;-39
2022/12/30 12:56:05;;;;;;;6.17;2.62;;;;;;;8.42;66.17;99149.02;1693712;84;20976;-41